createdAt,value
2023-04-07T00:00:21.863Z,54.4428
2023-04-07T00:01:30.135Z,57.7799
2023-04-07T00:02:38.256Z,57.4780
2023-04-07T00:03:46.398Z,54.7449
2023-04-07T00:04:54.301Z,53.6479
2023-04-07T00:06:02.210Z,53.4944
2023-04-07T00:07:10.533Z,53.0423
2023-04-07T00:08:18.340Z,52.4469
2023-04-07T00:09:26.794Z,53.3926
2023-04-07T00:10:34.646Z,53.9548
2023-04-07T00:11:42.727Z,53.6928
2023-04-07T00:12:50.966Z,54.8487
2023-04-07T00:13:58.908Z,56.1898
2023-04-07T00:15:06.797Z,55.9745
2023-04-07T00:16:15.051Z,54.8040
2023-04-07T00:17:23.100Z,55.0488
2023-04-07T00:18:31.143Z,54.8896
2023-04-07T00:19:39.286Z,53.7464
2023-04-07T00:20:47.309Z,52.0860
2023-04-07T00:21:55.461Z,51.4418
2023-04-07T00:23:03.284Z,51.2805
2023-04-07T00:24:12.977Z,51.8853
2023-04-07T00:25:24.466Z,52.9041
2023-04-07T00:26:32.494Z,53.0194
2023-04-07T00:27:40.543Z,53.6242
2023-04-07T00:28:48.696Z,54.5888
2023-04-07T00:29:56.826Z,54.4593
2023-04-07T00:31:04.986Z,55.5619
2023-04-07T00:32:12.991Z,57.2772
2023-04-07T00:33:20.924Z,57.8331
2023-04-07T00:34:29.016Z,58.1400
2023-04-07T00:35:37.004Z,58.5284
2023-04-07T00:36:45.227Z,58.4041
2023-04-07T00:37:53.238Z,58.1536
2023-04-07T00:39:01.302Z,55.4846
2023-04-07T00:40:09.499Z,54.0708
2023-04-07T00:41:17.333Z,52.3131
2023-04-07T00:42:25.522Z,51.5339
2023-04-07T00:43:33.452Z,51.2101
2023-04-07T00:44:41.683Z,51.4335
2023-04-07T00:45:49.728Z,51.3927
2023-04-07T00:46:57.708Z,50.8333
2023-04-07T00:48:05.987Z,51.0062
2023-04-07T00:49:14.002Z,51.9803
2023-04-07T00:50:22.174Z,52.5053
2023-04-07T00:51:30.056Z,52.0750
2023-04-07T00:52:38.060Z,52.4709
2023-04-07T00:53:46.416Z,53.5763
2023-04-07T00:54:54.326Z,54.7446
2023-04-07T00:56:02.420Z,55.6123
2023-04-07T00:57:10.494Z,56.4085
2023-04-07T00:58:18.435Z,56.9357
2023-04-07T00:59:26.653Z,56.8520
2023-04-07T01:00:34.688Z,56.0915
2023-04-07T01:01:42.963Z,55.0098
2023-04-07T01:02:51.054Z,55.4899
2023-04-07T01:03:59.492Z,55.1550
2023-04-07T01:05:07.212Z,53.9766
2023-04-07T01:06:15.309Z,53.7223
2023-04-07T01:07:23.125Z,53.9280
2023-04-07T01:08:31.327Z,53.6145
2023-04-07T01:09:39.342Z,53.1888
2023-04-07T01:10:47.312Z,53.7133
2023-04-07T01:11:55.439Z,54.1515
2023-04-07T01:13:03.492Z,53.5612
2023-04-07T01:14:11.701Z,54.1617
2023-04-07T01:15:19.706Z,53.6079
2023-04-07T01:16:27.876Z,53.0496
2023-04-07T01:17:35.781Z,53.8297
2023-04-07T01:18:43.915Z,54.4226
2023-04-07T01:19:51.939Z,53.5761
2023-04-07T01:21:00.099Z,53.3639
2023-04-07T01:22:08.125Z,52.9276
2023-04-07T01:23:16.124Z,52.5663
2023-04-07T01:24:24.222Z,52.3269
2023-04-07T01:25:32.301Z,53.0426
2023-04-07T01:26:40.417Z,53.6906
2023-04-07T01:27:48.442Z,54.1105
2023-04-07T01:28:56.559Z,54.9991
2023-04-07T01:30:04.474Z,55.8289
2023-04-07T01:31:12.929Z,56.5050
2023-04-07T01:32:20.901Z,55.5497
2023-04-07T01:33:28.816Z,54.6674
2023-04-07T01:34:36.909Z,53.6309
2023-04-07T01:35:45.025Z,53.0670
2023-04-07T01:36:53.059Z,53.2422
2023-04-07T01:38:01.197Z,53.8581
2023-04-07T01:39:09.211Z,53.5942
2023-04-07T01:40:17.129Z,53.3522
2023-04-07T01:41:25.334Z,52.9504
2023-04-07T01:42:33.402Z,52.5980
2023-04-07T01:43:41.783Z,52.2996
2023-04-07T01:44:49.558Z,51.9097
2023-04-07T01:45:57.718Z,52.2045
2023-04-07T01:47:05.816Z,52.4987
2023-04-07T01:48:13.903Z,52.5311
2023-04-07T01:49:21.915Z,52.5896
2023-04-07T01:50:29.913Z,52.6812
2023-04-07T01:51:38.152Z,53.2569
2023-04-07T01:52:46.051Z,52.8076
2023-04-07T01:53:54.307Z,52.4296
2023-04-07T01:55:02.260Z,52.2223
2023-04-07T01:56:10.310Z,52.3984
2023-04-07T01:57:18.358Z,52.7089
2023-04-07T01:58:26.330Z,52.7647
2023-04-07T01:59:34.518Z,52.4331
2023-04-07T02:00:42.879Z,52.3361
2023-04-07T02:01:50.880Z,51.9307
2023-04-07T02:02:58.799Z,52.0987
2023-04-07T02:04:06.721Z,52.0970
2023-04-07T02:05:14.873Z,52.2032
2023-04-07T02:06:23.009Z,52.5664
2023-04-07T02:07:31.051Z,52.6872
2023-04-07T02:08:39.130Z,52.4181
2023-04-07T02:09:47.351Z,52.4452
2023-04-07T02:10:55.215Z,52.6888
2023-04-07T02:12:03.372Z,52.4693
2023-04-07T02:13:11.458Z,52.0947
2023-04-07T02:14:19.409Z,52.4685
2023-04-07T02:15:27.577Z,52.7926
2023-04-07T02:16:35.601Z,53.0154
2023-04-07T02:17:43.884Z,55.0961
2023-04-07T02:18:51.813Z,56.1591
2023-04-07T02:19:59.795Z,56.2011
2023-04-07T02:21:07.974Z,56.8520
2023-04-07T02:22:15.934Z,57.5285
2023-04-07T02:23:24.075Z,56.8590
2023-04-07T02:24:32.162Z,55.9847
2023-04-07T02:25:40.297Z,55.5034
2023-04-07T02:26:48.103Z,55.1468
2023-04-07T02:27:56.305Z,54.7830
2023-04-07T02:29:04.437Z,54.9830
2023-04-07T02:30:12.493Z,55.1680
2023-04-07T02:31:20.522Z,56.3972
2023-04-07T02:32:28.827Z,56.8280
2023-04-07T02:33:36.640Z,57.4274
2023-04-07T02:34:44.759Z,59.3617
2023-04-07T02:35:52.918Z,61.1440
2023-04-07T02:37:00.962Z,62.9718
2023-04-07T02:38:08.928Z,62.8516
2023-04-07T02:39:16.968Z,59.0505
2023-04-07T02:40:24.942Z,56.7348
2023-04-07T02:41:33.126Z,58.4827
2023-04-07T02:42:41.151Z,61.6450
2023-04-07T02:43:49.234Z,62.9397
2023-04-07T02:44:57.390Z,63.7493
2023-04-07T02:46:05.600Z,64.9749
2023-04-07T02:47:13.446Z,64.9294
2023-04-07T02:48:21.515Z,64.8925
2023-04-07T02:49:29.580Z,64.9798
2023-04-07T02:50:37.653Z,65.0487
2023-04-07T02:51:45.795Z,64.3326
2023-04-07T02:52:53.812Z,63.8131
2023-04-07T02:54:01.883Z,63.5832
2023-04-07T02:55:09.951Z,63.5490
2023-04-07T02:56:18.111Z,62.9954
2023-04-07T02:57:26.268Z,63.0365
2023-04-07T02:58:33.995Z,62.5401
2023-04-07T02:59:42.185Z,62.2714
2023-04-07T03:00:50.897Z,61.2869
2023-04-07T03:01:58.532Z,62.5342
2023-04-07T03:03:06.700Z,64.0139
2023-04-07T03:04:14.606Z,64.5347
2023-04-07T03:05:22.683Z,64.9337
2023-04-07T03:06:30.595Z,65.3543
2023-04-07T03:07:38.660Z,65.3216
2023-04-07T03:08:46.915Z,65.0132
2023-04-07T03:09:54.824Z,63.9617
2023-04-07T03:11:02.882Z,64.0519
2023-04-07T03:12:10.873Z,64.3224
2023-04-07T03:13:19.131Z,62.5110
2023-04-07T03:14:27.272Z,62.1075
2023-04-07T03:15:35.189Z,62.3581
2023-04-07T03:16:43.332Z,62.4017
2023-04-07T03:17:51.484Z,61.7118
2023-04-07T03:18:59.389Z,61.2382
2023-04-07T03:20:07.505Z,60.7852
2023-04-07T03:21:15.472Z,61.2985
2023-04-07T03:22:23.591Z,61.4514
2023-04-07T03:23:31.597Z,61.7325
2023-04-07T03:24:39.795Z,62.4802
2023-04-07T03:25:48.756Z,62.4160
2023-04-07T03:26:55.951Z,62.2062
2023-04-07T03:28:03.947Z,63.0201
2023-04-07T03:29:11.918Z,63.1384
2023-04-07T03:30:20.103Z,62.6860
2023-04-07T03:31:28.255Z,62.4495
2023-04-07T03:32:36.315Z,63.1822
2023-04-07T03:33:44.410Z,63.5628
2023-04-07T03:34:52.576Z,62.7866
2023-04-07T03:36:00.591Z,62.1681
2023-04-07T03:37:08.557Z,62.4565
2023-04-07T03:38:16.743Z,62.1360
2023-04-07T03:39:24.833Z,62.0144
2023-04-07T03:40:32.893Z,61.8410
2023-04-07T03:41:40.807Z,61.2988
2023-04-07T03:42:49.047Z,61.9510
2023-04-07T03:43:57.245Z,63.0484
2023-04-07T03:45:05.158Z,63.0111
2023-04-07T03:46:13.340Z,63.7296
2023-04-07T03:47:21.379Z,63.2426
2023-04-07T03:48:29.455Z,63.0704
2023-04-07T03:49:37.465Z,62.9088
2023-04-07T03:50:45.501Z,62.2608
2023-04-07T03:51:53.647Z,61.9462
2023-04-07T03:53:01.681Z,61.8783
2023-04-07T03:54:09.815Z,61.0019
2023-04-07T03:55:17.722Z,59.8366
2023-04-07T03:56:27.920Z,59.3166
2023-04-07T03:57:38.893Z,59.2100
2023-04-07T03:58:46.936Z,59.0479
2023-04-07T03:59:55.066Z,59.1403
2023-04-07T04:01:02.985Z,58.9140
2023-04-07T04:02:11.334Z,58.3010
2023-04-07T04:03:19.445Z,58.1673
2023-04-07T04:04:27.272Z,58.6852
2023-04-07T04:05:35.435Z,58.3227
2023-04-07T04:06:43.313Z,58.7164
2023-04-07T04:07:51.454Z,60.3118
2023-04-07T04:08:59.537Z,60.6374
2023-04-07T04:10:07.632Z,60.5404
2023-04-07T04:11:15.699Z,60.2024
2023-04-07T04:12:23.900Z,60.5093
2023-04-07T04:13:31.864Z,59.5273
2023-04-07T04:14:39.963Z,58.8367
2023-04-07T04:15:48.047Z,58.7618
2023-04-07T04:16:56.100Z,58.7943
2023-04-07T04:18:04.196Z,58.7569
2023-04-07T04:19:12.210Z,58.8121
2023-04-07T04:20:20.316Z,58.6179
2023-04-07T04:21:28.326Z,58.6681
2023-04-07T04:22:36.558Z,58.1615
2023-04-07T04:23:44.496Z,58.0453
2023-04-07T04:24:52.622Z,58.4243
2023-04-07T04:26:00.711Z,59.0300
2023-04-07T04:27:08.767Z,59.6894
2023-04-07T04:28:16.748Z,60.7088
2023-04-07T04:29:24.846Z,61.0544
2023-04-07T04:30:32.865Z,60.4670
2023-04-07T04:31:41.037Z,61.2426
2023-04-07T04:32:49.110Z,61.8084
2023-04-07T04:33:57.177Z,61.9785
2023-04-07T04:35:05.354Z,61.8643
2023-04-07T04:36:13.272Z,61.9744
2023-04-07T04:37:21.378Z,62.1021
2023-04-07T04:38:29.479Z,62.9927
2023-04-07T04:39:37.490Z,62.9972
2023-04-07T04:40:45.717Z,62.6883
2023-04-07T04:41:53.681Z,62.7960
2023-04-07T04:43:01.829Z,62.7962
2023-04-07T04:44:10.045Z,62.5100
2023-04-07T04:45:17.949Z,62.9985
2023-04-07T04:46:26.012Z,64.4867
2023-04-07T04:47:34.168Z,65.7760
2023-04-07T04:48:42.123Z,66.2607
2023-04-07T04:49:50.108Z,66.3986
2023-04-07T04:50:58.324Z,66.4250
2023-04-07T04:52:06.434Z,66.3559
2023-04-07T04:53:14.412Z,66.3361
2023-04-07T04:54:22.497Z,66.4460
2023-04-07T04:55:30.644Z,66.6384
2023-04-07T04:56:38.684Z,66.7976
2023-04-07T04:57:46.704Z,67.9187
2023-04-07T04:58:54.784Z,68.1359
2023-04-07T05:00:02.790Z,67.4349
2023-04-07T05:01:10.927Z,67.2676
2023-04-07T05:02:19.237Z,67.4655
2023-04-07T05:03:27.413Z,68.1125
2023-04-07T05:04:35.312Z,68.9236
2023-04-07T05:05:43.226Z,69.5701
2023-04-07T05:06:51.275Z,69.9526
2023-04-07T05:07:59.494Z,70.3091
2023-04-07T05:09:07.426Z,70.6693
2023-04-07T05:10:15.458Z,70.9812
2023-04-07T05:11:23.607Z,71.4183
2023-04-07T05:12:31.715Z,71.5319
2023-04-07T05:13:39.778Z,71.5091
2023-04-07T05:14:47.784Z,70.8685
2023-04-07T05:15:55.903Z,70.8652
2023-04-07T05:17:04.034Z,70.1557
2023-04-07T05:18:11.998Z,69.7350
2023-04-07T05:19:20.106Z,69.7353
2023-04-07T05:20:28.186Z,69.4745
2023-04-07T05:21:36.215Z,68.8199
2023-04-07T05:22:44.205Z,69.3899
2023-04-07T05:23:52.661Z,69.6066
2023-04-07T05:25:00.547Z,70.0679
2023-04-07T05:26:08.527Z,70.0631
2023-04-07T05:27:16.603Z,69.8656
2023-04-07T05:28:24.649Z,70.5241
2023-04-07T05:29:32.838Z,70.7490
2023-04-07T05:30:40.825Z,70.4931
2023-04-07T05:31:48.900Z,70.3672
2023-04-07T05:32:57.045Z,70.7224
2023-04-07T05:34:05.112Z,71.1132
2023-04-07T05:35:13.067Z,70.2626
2023-04-07T05:36:21.200Z,70.0631
2023-04-07T05:37:29.349Z,69.6676
2023-04-07T05:38:37.288Z,69.9158
2023-04-07T05:39:45.356Z,69.6608
2023-04-07T05:40:53.510Z,69.2122
2023-04-07T05:42:01.537Z,69.3325
2023-04-07T05:43:09.671Z,69.4012
2023-04-07T05:44:17.655Z,69.9324
2023-04-07T05:45:25.860Z,69.4594
2023-04-07T05:46:33.771Z,68.8704
2023-04-07T05:47:41.927Z,68.7839
2023-04-07T05:48:49.909Z,68.6986
2023-04-07T05:49:57.997Z,69.1747
2023-04-07T05:51:06.181Z,69.0426
2023-04-07T05:52:14.112Z,68.4992
2023-04-07T05:53:22.299Z,68.8244
2023-04-07T05:54:30.224Z,69.5946
2023-04-07T05:55:38.340Z,69.6499
2023-04-07T05:56:46.369Z,69.6556
2023-04-07T05:57:54.590Z,69.3517
2023-04-07T05:59:02.610Z,68.8799
2023-04-07T06:00:10.576Z,69.2390
2023-04-07T06:01:18.876Z,69.4545
2023-04-07T06:02:26.881Z,69.4592
2023-04-07T06:03:34.921Z,69.1266
2023-04-07T06:04:42.910Z,68.4222
2023-04-07T06:05:51.080Z,67.9630
2023-04-07T06:06:59.051Z,67.2448
2023-04-07T06:08:07.130Z,66.4974
2023-04-07T06:09:15.201Z,66.8986
2023-04-07T06:10:23.247Z,66.6628
2023-04-07T06:11:31.446Z,66.4448
2023-04-07T06:12:39.458Z,66.3185
2023-04-07T06:13:47.874Z,65.6529
2023-04-07T06:14:55.557Z,64.9667
2023-04-07T06:16:03.686Z,64.6373
2023-04-07T06:17:11.761Z,64.9669
2023-04-07T06:18:19.903Z,65.2436
2023-04-07T06:19:27.844Z,65.4179
2023-04-07T06:20:36.047Z,65.1824
2023-04-07T06:21:44.033Z,64.1915
2023-04-07T06:22:52.088Z,64.3369
2023-04-07T06:24:00.169Z,64.3961
2023-04-07T06:25:08.211Z,64.5219
2023-04-07T06:26:16.405Z,65.7839
2023-04-07T06:27:24.405Z,65.7606
2023-04-07T06:28:32.420Z,65.4948
2023-04-07T06:29:40.620Z,66.0667
2023-04-07T06:30:48.704Z,66.4397
2023-04-07T06:31:56.688Z,65.3140
2023-04-07T06:33:04.775Z,64.9713
2023-04-07T06:34:12.794Z,65.0191
2023-04-07T06:35:20.847Z,65.3126
2023-04-07T06:36:28.969Z,64.6347
2023-04-07T06:37:37.027Z,63.8129
2023-04-07T06:38:45.249Z,64.7770
2023-04-07T06:39:53.157Z,65.0539
2023-04-07T06:41:01.215Z,64.9883
2023-04-07T06:42:09.224Z,63.6384
2023-04-07T06:43:17.361Z,62.8677
2023-04-07T06:44:25.461Z,63.2333
2023-04-07T06:45:33.505Z,63.7187
2023-04-07T06:46:41.854Z,63.8550
2023-04-07T06:47:49.759Z,61.9131
2023-04-07T06:48:57.727Z,60.5343
2023-04-07T06:50:05.897Z,59.7068
2023-04-07T06:51:13.989Z,58.9534
2023-04-07T06:52:21.915Z,58.8412
2023-04-07T06:53:30.007Z,58.5560
2023-04-07T06:54:38.089Z,58.5717
2023-04-07T06:55:46.189Z,59.6403
2023-04-07T06:56:54.718Z,59.9851
2023-04-07T06:58:02.271Z,59.5221
2023-04-07T06:59:10.423Z,59.0790
2023-04-07T07:00:18.356Z,59.2243
2023-04-07T07:01:26.623Z,59.2560
2023-04-07T07:02:34.730Z,59.2557
2023-04-07T07:03:42.708Z,59.0559
2023-04-07T07:04:50.682Z,58.7217
2023-04-07T07:05:58.671Z,58.9437
2023-04-07T07:07:07.004Z,59.2718
2023-04-07T07:08:14.907Z,59.2122
2023-04-07T07:09:22.979Z,59.0440
2023-04-07T07:10:31.121Z,58.9748
2023-04-07T07:11:39.100Z,58.7912
2023-04-07T07:12:47.212Z,59.4353
2023-04-07T07:13:55.242Z,60.0840
2023-04-07T07:15:03.414Z,60.7323
2023-04-07T07:16:11.618Z,61.4050
2023-04-07T07:17:19.445Z,62.0901
2023-04-07T07:18:28.507Z,62.0352
2023-04-07T07:19:35.597Z,61.9017
2023-04-07T07:20:43.670Z,62.2731
2023-04-07T07:21:51.761Z,62.5135
2023-04-07T07:22:59.872Z,62.2225
2023-04-07T07:24:07.909Z,62.0840
2023-04-07T07:25:15.931Z,62.4301
2023-04-07T07:26:24.000Z,62.4717
2023-04-07T07:27:32.123Z,62.5599
2023-04-07T07:28:40.077Z,63.3780
2023-04-07T07:29:48.270Z,63.7231
2023-04-07T07:30:56.389Z,63.7607
2023-04-07T07:32:04.402Z,63.5546
2023-04-07T07:33:12.533Z,64.0671
2023-04-07T07:34:20.474Z,63.3017
2023-04-07T07:35:28.526Z,63.2051
2023-04-07T07:36:36.639Z,63.9263
2023-04-07T07:37:44.625Z,63.8159
2023-04-07T07:38:52.899Z,62.8305
2023-04-07T07:40:00.837Z,63.0513
2023-04-07T07:41:08.849Z,62.8229
2023-04-07T07:42:17.148Z,63.1122
2023-04-07T07:43:25.146Z,63.2854
2023-04-07T07:44:33.112Z,63.0324
2023-04-07T07:45:41.170Z,63.0755
2023-04-07T07:46:49.469Z,63.2845
2023-04-07T07:47:57.518Z,64.1085
2023-04-07T07:49:05.500Z,63.4419
2023-04-07T07:50:13.524Z,63.0830
2023-04-07T07:51:21.619Z,62.9413
2023-04-07T07:52:29.801Z,62.9068
2023-04-07T07:53:37.758Z,63.2921
2023-04-07T07:54:45.822Z,63.7828
2023-04-07T07:55:53.974Z,63.2124
2023-04-07T07:57:01.941Z,62.8904
2023-04-07T07:58:10.037Z,62.2613
2023-04-07T07:59:18.112Z,62.1419
2023-04-07T08:00:26.139Z,62.2367
2023-04-07T08:01:34.419Z,62.0773
2023-04-07T08:02:42.336Z,62.4772
2023-04-07T08:03:50.774Z,61.8736
2023-04-07T08:04:58.588Z,61.6513
2023-04-07T08:06:06.517Z,61.7157
2023-04-07T08:07:14.563Z,61.3339
2023-04-07T08:08:23.328Z,61.4636
2023-04-07T08:09:30.679Z,61.7458
2023-04-07T08:10:38.787Z,61.7729
2023-04-07T08:11:46.937Z,62.2461
2023-04-07T08:12:54.849Z,62.6702
2023-04-07T08:14:02.986Z,63.2462
2023-04-07T08:15:11.042Z,64.6175
2023-04-07T08:16:19.341Z,64.8101
2023-04-07T08:17:27.209Z,65.4216
2023-04-07T08:18:35.286Z,65.4568
2023-04-07T08:19:43.378Z,65.5777
2023-04-07T08:20:51.441Z,65.8914
2023-04-07T08:21:59.472Z,65.3758
2023-04-07T08:23:07.579Z,65.1601
2023-04-07T08:24:15.790Z,65.4427
2023-04-07T08:25:23.683Z,64.6275
2023-04-07T08:26:31.814Z,64.2142
2023-04-07T08:27:39.893Z,64.3946
2023-04-07T08:28:48.005Z,64.3111
2023-04-07T08:29:55.957Z,64.5708
2023-04-07T08:31:04.100Z,64.6528
2023-04-07T08:32:12.264Z,65.1180
2023-04-07T08:33:20.091Z,65.3825
2023-04-07T08:34:28.254Z,66.0914
2023-04-07T08:35:36.385Z,66.1948
2023-04-07T08:36:44.368Z,66.2592
2023-04-07T08:37:52.576Z,66.6843
2023-04-07T08:39:00.451Z,66.8316
2023-04-07T08:40:08.676Z,67.2941
2023-04-07T08:41:16.702Z,67.8077
2023-04-07T08:42:24.731Z,68.2220
2023-04-07T08:43:32.899Z,68.7990
2023-04-07T08:44:40.793Z,69.1600
2023-04-07T08:45:48.953Z,69.6049
2023-04-07T08:46:57.005Z,70.1513
2023-04-07T08:48:05.321Z,70.1935
2023-04-07T08:49:13.197Z,70.7976
2023-04-07T08:50:21.247Z,71.0090
2023-04-07T08:51:29.325Z,71.3567
2023-04-07T08:52:37.501Z,71.2536
2023-04-07T08:53:45.787Z,71.9104
2023-04-07T08:54:53.506Z,72.1597
2023-04-07T08:56:01.611Z,72.3694
2023-04-07T08:57:09.825Z,72.5718
2023-04-07T08:58:17.878Z,72.2185
2023-04-07T08:59:25.832Z,72.5578
2023-04-07T09:00:33.973Z,72.5424
2023-04-07T09:01:42.272Z,73.1886
2023-04-07T09:02:50.134Z,73.4845
2023-04-07T09:03:58.138Z,73.6388
2023-04-07T09:05:06.155Z,72.9937
2023-04-07T09:06:14.420Z,71.6896
2023-04-07T09:07:22.388Z,71.8303
2023-04-07T09:08:30.409Z,71.9852
2023-04-07T09:09:38.608Z,72.1679
2023-04-07T09:10:46.615Z,71.3021
2023-04-07T09:11:54.673Z,71.2645
2023-04-07T09:13:02.688Z,70.8335
2023-04-07T09:14:10.764Z,70.3607
2023-04-07T09:15:18.939Z,70.0939
2023-04-07T09:16:26.937Z,69.5394
2023-04-07T09:17:35.175Z,69.6589
2023-04-07T09:18:43.122Z,70.2174
2023-04-07T09:19:51.214Z,71.3976
2023-04-07T09:20:59.144Z,70.7959
2023-04-07T09:22:07.409Z,69.8504
2023-04-07T09:23:15.399Z,70.5720
2023-04-07T09:24:23.459Z,71.0862
2023-04-07T09:25:31.657Z,71.4989
2023-04-07T09:26:39.568Z,72.1315
2023-04-07T09:27:47.654Z,72.4908
2023-04-07T09:28:55.774Z,72.6699
2023-04-07T09:30:03.887Z,72.7480
2023-04-07T09:31:11.859Z,72.8406
2023-04-07T09:32:19.960Z,72.6022
2023-04-07T09:33:28.112Z,72.2827
2023-04-07T09:34:36.282Z,71.8603
2023-04-07T09:35:44.157Z,71.2882
2023-04-07T09:36:52.214Z,70.3855
2023-04-07T09:38:00.363Z,70.8681
2023-04-07T09:39:08.464Z,71.1018
2023-04-07T09:40:16.467Z,71.0264
2023-04-07T09:41:24.547Z,71.7647
2023-04-07T09:42:32.656Z,72.3892
2023-04-07T09:43:40.717Z,72.1883
2023-04-07T09:44:48.690Z,72.3103
2023-04-07T09:45:56.876Z,72.7909
2023-04-07T09:47:04.806Z,72.9356
2023-04-07T09:48:12.903Z,72.3805
2023-04-07T09:49:21.021Z,72.9943
2023-04-07T09:50:29.128Z,72.5070
2023-04-07T09:51:37.215Z,72.9904
2023-04-07T09:52:45.389Z,73.4948
2023-04-07T09:53:53.309Z,73.5781
2023-04-07T09:55:01.490Z,74.0159
2023-04-07T09:56:09.458Z,73.1874
2023-04-07T09:57:17.553Z,72.1712
2023-04-07T09:58:25.603Z,71.7134
2023-04-07T09:59:33.717Z,71.4494
2023-04-07T10:00:41.785Z,71.3748
2023-04-07T10:01:49.891Z,71.5448
2023-04-07T10:02:58.358Z,71.6301
2023-04-07T10:04:05.981Z,71.2895
2023-04-07T10:05:14.061Z,71.2429
2023-04-07T10:06:22.099Z,71.9401
2023-04-07T10:07:30.254Z,71.4666
2023-04-07T10:08:38.320Z,71.5988
2023-04-07T10:09:46.429Z,71.5144
2023-04-07T10:10:54.403Z,71.6641
2023-04-07T10:12:02.585Z,71.5817
2023-04-07T10:13:10.556Z,71.5418
2023-04-07T10:14:18.645Z,71.5740
2023-04-07T10:15:26.746Z,71.8327
2023-04-07T10:16:34.806Z,72.5165
2023-04-07T10:17:42.886Z,72.8955
2023-04-07T10:18:51.060Z,72.7130
2023-04-07T10:19:59.145Z,72.3972
2023-04-07T10:21:07.070Z,72.2493
2023-04-07T10:22:15.181Z,72.6698
2023-04-07T10:23:23.224Z,72.2957
2023-04-07T10:24:31.379Z,72.2458
2023-04-07T10:25:39.442Z,72.0981
2023-04-07T10:26:47.575Z,72.0010
2023-04-07T10:27:55.439Z,72.1218
2023-04-07T10:29:03.588Z,72.3177
2023-04-07T10:30:11.602Z,71.8329
2023-04-07T10:31:19.815Z,71.6428
2023-04-07T10:32:27.929Z,72.1467
2023-04-07T10:33:35.884Z,72.3271
2023-04-07T10:34:44.008Z,71.4110
2023-04-07T10:35:52.177Z,71.8741
2023-04-07T10:37:00.227Z,73.2026
2023-04-07T10:38:08.346Z,72.5441
2023-04-07T10:39:16.275Z,72.4945
2023-04-07T10:40:24.348Z,72.2962
2023-04-07T10:41:32.494Z,72.0739
2023-04-07T10:42:40.484Z,72.2615
2023-04-07T10:43:48.682Z,72.5282
2023-04-07T10:44:56.672Z,72.6379
2023-04-07T10:46:04.738Z,72.8038
2023-04-07T10:47:12.776Z,73.0707
2023-04-07T10:48:20.879Z,72.7987
2023-04-07T10:49:29.023Z,72.3456
2023-04-07T10:50:37.077Z,71.9516
2023-04-07T10:51:45.080Z,72.8125
2023-04-07T10:52:53.125Z,73.0522
2023-04-07T10:54:01.164Z,72.7729
2023-04-07T10:55:09.403Z,72.9886
2023-04-07T10:56:17.297Z,72.7485
2023-04-07T10:57:25.456Z,72.7712
2023-04-07T10:58:33.516Z,72.4366
2023-04-07T10:59:41.538Z,72.2830
2023-04-07T11:00:49.651Z,72.0644
2023-04-07T11:01:57.889Z,72.0460
2023-04-07T11:03:05.926Z,72.4246
2023-04-07T11:04:14.114Z,73.7794
2023-04-07T11:05:22.006Z,74.2682
2023-04-07T11:06:30.146Z,74.8763
2023-04-07T11:07:38.093Z,75.5441
2023-04-07T11:08:48.373Z,75.7100
2023-04-07T11:09:59.105Z,76.5514
2023-04-07T11:11:07.274Z,77.9688
2023-04-07T11:12:15.273Z,79.2741
2023-04-07T11:13:23.346Z,78.9727
2023-04-07T11:14:31.341Z,78.2935
2023-04-07T11:15:40.909Z,79.8278
2023-04-07T11:16:47.641Z,80.6910
2023-04-07T11:17:55.718Z,80.2371
2023-04-07T11:19:03.692Z,80.4235
2023-04-07T11:20:11.760Z,81.1229
2023-04-07T11:21:19.878Z,80.9830
2023-04-07T11:22:30.303Z,80.8621
2023-04-07T11:23:35.956Z,81.4879
2023-04-07T11:24:44.019Z,81.9157
2023-04-07T11:25:52.118Z,81.2883
2023-04-07T11:27:00.165Z,80.8273
2023-04-07T11:28:08.375Z,81.1636
2023-04-07T11:29:16.275Z,81.9981
2023-04-07T11:30:24.419Z,82.0605
2023-04-07T11:31:32.565Z,83.1702
2023-04-07T11:32:40.551Z,84.2642
2023-04-07T11:33:48.786Z,84.9836
2023-04-07T11:34:56.618Z,85.0954
2023-04-07T11:36:04.881Z,85.4761
2023-04-07T11:37:12.824Z,85.6807
2023-04-07T11:38:20.892Z,85.3271
2023-04-07T11:39:29.010Z,86.3264
2023-04-07T11:40:37.163Z,86.4141
2023-04-07T11:41:45.213Z,86.3267
2023-04-07T11:42:53.212Z,86.2327
2023-04-07T11:44:01.314Z,87.1885
2023-04-07T11:45:09.397Z,87.2881
2023-04-07T11:46:17.423Z,86.9368
2023-04-07T11:47:25.469Z,87.1739
2023-04-07T11:48:33.642Z,87.9916
2023-04-07T11:49:41.665Z,87.4034
2023-04-07T11:50:49.729Z,87.5498
2023-04-07T11:51:57.882Z,88.8854
2023-04-07T11:53:05.992Z,88.5544
2023-04-07T11:54:14.050Z,88.3524
2023-04-07T11:55:22.421Z,88.9058
2023-04-07T11:56:30.183Z,89.5229
2023-04-07T11:57:38.269Z,88.9688
2023-04-07T11:58:46.305Z,89.1384
2023-04-07T11:59:54.391Z,89.2539
2023-04-07T12:01:02.448Z,88.0686
2023-04-07T12:02:10.874Z,87.7122
2023-04-07T12:03:18.749Z,87.7398
2023-04-07T12:04:26.755Z,88.3043
2023-04-07T12:05:34.734Z,87.5311
2023-04-07T12:06:42.916Z,87.6228
2023-04-07T12:07:50.918Z,88.8203
2023-04-07T12:08:58.891Z,89.0539
2023-04-07T12:10:07.030Z,89.3081
2023-04-07T12:11:15.224Z,88.8581
2023-04-07T12:12:23.182Z,89.0370
2023-04-07T12:13:31.273Z,88.7037
2023-04-07T12:14:39.276Z,89.1945
2023-04-07T12:15:47.390Z,89.4216
2023-04-07T12:16:55.527Z,88.9131
2023-04-07T12:18:03.606Z,88.5258
2023-04-07T12:19:11.789Z,88.0706
2023-04-07T12:20:19.666Z,87.4601
2023-04-07T12:21:27.784Z,87.7853
2023-04-07T12:22:35.840Z,87.5814
2023-04-07T12:23:44.023Z,87.7712
2023-04-07T12:24:52.028Z,87.0734
2023-04-07T12:25:59.994Z,86.9457
2023-04-07T12:27:08.176Z,86.9447
2023-04-07T12:28:16.202Z,86.7850
2023-04-07T12:29:24.256Z,86.8204
2023-04-07T12:30:32.408Z,86.8891
2023-04-07T12:31:40.371Z,87.1882
2023-04-07T12:32:48.547Z,87.8529
2023-04-07T12:33:56.621Z,88.0284
2023-04-07T12:35:04.665Z,87.7617
2023-04-07T12:36:12.889Z,87.6936
2023-04-07T12:37:20.852Z,87.4028
2023-04-07T12:38:28.825Z,87.4919
2023-04-07T12:39:36.989Z,87.1612
2023-04-07T12:40:45.133Z,86.8663
2023-04-07T12:41:53.182Z,87.5320
2023-04-07T12:43:01.175Z,87.6553
2023-04-07T12:44:09.298Z,87.2382
2023-04-07T12:45:17.308Z,87.0204
2023-04-07T12:46:25.523Z,87.1233
2023-04-07T12:47:33.546Z,87.2975
2023-04-07T12:48:41.760Z,87.3589
2023-04-07T12:49:50.297Z,86.7635
2023-04-07T12:50:57.686Z,86.6579
2023-04-07T12:52:05.771Z,86.3665
2023-04-07T12:53:13.859Z,85.9723
2023-04-07T12:54:21.895Z,86.4798
2023-04-07T12:55:29.925Z,86.0503
2023-04-07T12:56:38.158Z,85.7473
2023-04-07T12:57:46.119Z,84.6068
2023-04-07T12:58:54.359Z,84.6482
2023-04-07T13:00:02.202Z,84.9373
2023-04-07T13:01:10.271Z,84.9204
2023-04-07T13:02:18.489Z,84.8341
2023-04-07T13:03:26.696Z,84.4244
2023-04-07T13:04:34.636Z,84.3020
2023-04-07T13:05:42.617Z,84.9989
2023-04-07T13:06:50.629Z,84.1556
2023-04-07T13:07:58.757Z,82.4523
2023-04-07T13:09:06.725Z,81.7081
2023-04-07T13:10:15.033Z,81.7818
2023-04-07T13:11:22.957Z,82.5514
2023-04-07T13:12:31.153Z,83.3292
2023-04-07T13:13:39.136Z,83.0448
2023-04-07T13:14:59.271Z,82.4953
2023-04-07T13:16:00.163Z,82.7624
2023-04-07T13:17:08.318Z,82.4671
2023-04-07T13:18:16.180Z,82.1878
2023-04-07T13:19:24.498Z,83.0229
2023-04-07T13:20:32.391Z,83.1939
2023-04-07T13:21:46.607Z,81.7930
2023-04-07T13:23:04.509Z,82.2591
2023-04-07T13:24:06.329Z,82.5637
2023-04-07T13:25:14.373Z,81.5070
2023-04-07T13:26:22.452Z,81.2469
2023-04-07T13:27:30.641Z,82.5217
2023-04-07T13:28:38.576Z,81.9974
2023-04-07T13:29:46.653Z,81.3600
2023-04-07T13:30:54.833Z,81.2963
2023-04-07T13:32:02.758Z,80.4087
2023-04-07T13:33:10.860Z,78.5792
2023-04-07T13:34:18.896Z,78.0837
2023-04-07T13:35:26.967Z,78.2361
2023-04-07T13:36:35.052Z,77.8669
2023-04-07T13:37:43.153Z,77.8170
2023-04-07T13:38:51.272Z,77.8148
2023-04-07T13:39:59.206Z,78.0517
2023-04-07T13:41:07.311Z,77.1288
2023-04-07T13:42:15.316Z,77.5338
2023-04-07T13:43:23.425Z,77.6845